METAR AND TAF INFORMATION
METAR FOR LEDA
ADDS - METARS form results

(0001 UTC 19 March 2019)
Data provider http://aviationweather.gov/metar/data/
 
METAR text: LEDA 182330Z AUTO 35007KT 9999 NCD 06/01 Q1022
Conditions at: LEDA (LLEIDA-ALGUAIRE , ES) observed 2330 UTC 18 March 2019
Temperature: 6.0°C (43°F)
Dewpoint: 1.0°C (34°F) [RH = 70%]
Pressure (altimeter): 30.18 inches Hg (1022.0 mb)
Winds: from the N (350 degrees) at 8 MPH (7 knots; 3.6 m/s)
Visibility: 6 or more miles (10+ km)
Ceiling: at least 12,000 feet AGL
Clouds: sky clear below 12,000 feet AGL
Weather: no significant weather observed at this time

AIRPORT MAP

RUNWAY INFORMATION

AIRPORT FREQUENCIES

AIRPORT NEAR NAVIGATION AIDS